KDKK/DKK METAR and TAF weather

Enter ICAO airport designator
Station Type Date Time Source
KDKK METAR 2023/02/05 13:53 UTC NOAA

KDKK 051353Z AUTO 21012G25KT 10SM CLR 07/M06 A2993 RMK AO2 PK WND 21026/1339 SLP142 T00671056


Station Type Date Time Source
KDKK Decoded METAR 2023/02/05 13:53 UTC NOAA

CHAUTAUQUA COUNTY/DUNKIRK, NY, United States (KDKK) 42-30N 079-17W 202M
Feb 05, 2023 - 08:53 AM EST / 2023.02.05 1353 UTC
Wind: from the SSW (210 degrees) at 14 MPH (12 KT) gusting to 29 MPH (25 KT):0
Visibility: 10 mile(s):0
Sky conditions: clear
Temperature: 44.1 F (6.7 C)
Dew Point: 21.9 F (-5.6 C)
Relative Humidity: 41%
Pressure (altimeter): 29.93 in. Hg (1013 hPa)
ob: KDKK 051353Z AUTO 21012G25KT 10SM CLR 07/M06 A2993 RMK AO2 PK WND 21026/1339 SLP142 T00671056
cycle: 14

Station Type Date Time Source
KDKK TAF UTC NOAA

Error!

Example: see airport list